createdAt,value
2019-05-21T00:02:39.644Z,99122.81
2019-05-21T00:05:27.633Z,99127.64
2019-05-21T00:08:14.425Z,99130.45
2019-05-21T00:11:01.962Z,99136.83
2019-05-21T00:13:49.606Z,99136.03
2019-05-21T00:16:36.879Z,99125.45
2019-05-21T00:19:24.554Z,99132.79
2019-05-21T00:22:11.568Z,99135.48
2019-05-21T00:24:58.732Z,99127.72
2019-05-21T00:27:45.953Z,99137.30
2019-05-21T00:31:10.354Z,99144.59
2019-05-21T00:34:53.275Z,99138.33
2019-05-21T00:38:36.164Z,99136.94
2019-05-21T00:41:59.833Z,99135.30
2019-05-21T00:44:47.309Z,99138.39
2019-05-21T00:47:34.373Z,99145.59
2019-05-21T00:56:35.510Z,99160.51
2019-05-21T00:59:22.825Z,99152.58
2019-05-21T01:02:09.980Z,99150.02
2019-05-21T01:05:00.895Z,99156.51
2019-05-21T01:07:45.309Z,99165.22
2019-05-21T01:13:39.574Z,99172.07
2019-05-21T01:16:26.857Z,99175.75
2019-05-21T01:22:20.936Z,99174.16
2019-05-21T01:25:09.259Z,99180.36
2019-05-21T01:27:58.042Z,99175.27
2019-05-21T01:30:46.971Z,99178.09
2019-05-21T01:33:33.785Z,99184.17
2019-05-21T01:36:21.716Z,99196.97
2019-05-21T01:39:08.522Z,99197.60
2019-05-21T01:41:56.388Z,99197.75
2019-05-21T01:47:50.931Z,99199.50
2019-05-21T01:50:39.501Z,99200.59
2019-05-21T01:53:27.332Z,99201.27
2019-05-21T01:56:14.431Z,99212.06
2019-05-21T01:59:01.815Z,99211.06
2019-05-21T02:08:03.683Z,99197.75
2019-05-21T02:10:52.431Z,99197.42
2019-05-21T02:13:40.341Z,99193.22
2019-05-21T02:16:28.274Z,99191.07
2019-05-21T02:19:15.522Z,99197.55
2019-05-21T02:25:08.759Z,99204.84
2019-05-21T02:27:56.312Z,99206.13
2019-05-21T02:30:43.244Z,99210.23
2019-05-21T02:36:37.188Z,99211.56
2019-05-21T02:39:25.231Z,99213.02
2019-05-21T02:42:12.052Z,99207.30
2019-05-21T02:44:59.994Z,99209.32
2019-05-21T02:47:46.699Z,99208.68
2019-05-21T02:50:34.638Z,99215.13
2019-05-21T02:53:21.716Z,99208.97
2019-05-21T02:56:08.444Z,99216.33
2019-05-21T02:58:55.989Z,99212.67
2019-05-21T03:01:47.184Z,99209.37
2019-05-21T03:04:35.216Z,99214.84
2019-05-21T03:07:25.560Z,99219.87
2019-05-21T03:10:09.051Z,99218.13
2019-05-21T03:12:56.184Z,99219.50
2019-05-21T03:15:44.279Z,99229.64
2019-05-21T03:18:31.874Z,99232.63
2019-05-21T03:21:18.645Z,99237.39
2019-05-21T03:24:05.741Z,99231.37
2019-05-21T03:26:53.019Z,99231.92
2019-05-21T03:32:47.048Z,99231.05
2019-05-21T03:35:34.256Z,99236.95
2019-05-21T03:38:21.917Z,99244.47
2019-05-21T03:41:10.159Z,99245.79
2019-05-21T03:43:57.896Z,99243.52
2019-05-21T03:46:44.731Z,99255.41
2019-05-21T03:49:31.904Z,99245.08
2019-05-21T03:52:19.274Z,99250.12
2019-05-21T03:55:05.971Z,99260.02
2019-05-21T03:57:53.071Z,99265.12
2019-05-21T04:00:40.162Z,99266.75
2019-05-21T04:03:26.892Z,99265.28
2019-05-21T04:06:14.930Z,99263.00
2019-05-21T04:09:04.847Z,99272.50
2019-05-21T04:11:53.269Z,99275.38
2019-05-21T04:17:51.251Z,99274.95
2019-05-21T04:20:38.175Z,99282.36
2019-05-21T04:23:25.228Z,99281.27
2019-05-21T04:26:13.713Z,99292.27
2019-05-21T04:29:04.008Z,99291.35
2019-05-21T04:31:54.211Z,99292.93
2019-05-21T04:34:42.441Z,99297.06
2019-05-21T04:37:29.886Z,99292.26
2019-05-21T04:40:16.758Z,99294.27
2019-05-21T04:43:03.863Z,99294.11
2019-05-21T04:45:51.846Z,99297.02
2019-05-21T04:48:39.020Z,99299.91
2019-05-21T04:54:31.584Z,99308.19
2019-05-21T04:57:19.542Z,99303.13
2019-05-21T05:00:06.905Z,99308.27
2019-05-21T05:02:53.649Z,99306.48
2019-05-21T05:05:41.328Z,99306.41
2019-05-21T05:08:28.401Z,99309.88
2019-05-21T05:11:15.818Z,99314.92
2019-05-21T05:14:03.683Z,99320.48
2019-05-21T05:16:51.934Z,99325.77
2019-05-21T05:19:40.346Z,99322.39
2019-05-21T05:22:27.317Z,99326.14
2019-05-21T05:25:15.222Z,99316.55
2019-05-21T05:28:02.047Z,99326.42
2019-05-21T05:30:49.453Z,99331.14
2019-05-21T05:33:37.183Z,99332.52
2019-05-21T05:36:24.422Z,99338.29
2019-05-21T05:39:12.239Z,99333.09
2019-05-21T05:41:59.091Z,99331.12
2019-05-21T05:44:46.218Z,99326.41
2019-05-21T05:47:32.974Z,99331.47
2019-05-21T05:50:25.861Z,99331.86
2019-05-21T05:53:12.555Z,99337.48
2019-05-21T05:56:00.571Z,99338.95
2019-05-21T05:58:47.718Z,99340.06
2019-05-21T06:01:34.507Z,99345.47
2019-05-21T06:04:21.540Z,99344.75
2019-05-21T06:07:08.333Z,99354.77
2019-05-21T06:09:55.553Z,99349.01
2019-05-21T06:12:56.742Z,99355.91
2019-05-21T06:15:43.809Z,99358.83
2019-05-21T06:18:35.402Z,99352.97
2019-05-21T06:27:30.923Z,99355.33
2019-05-21T06:30:17.699Z,99367.84
2019-05-21T06:33:04.565Z,99369.80
2019-05-21T06:39:00.949Z,99376.65
2019-05-21T06:41:48.274Z,99379.99
2019-05-21T06:44:35.207Z,99382.36
2019-05-21T06:47:23.715Z,99384.59
2019-05-21T06:50:10.361Z,99397.27
2019-05-21T06:52:57.055Z,99399.78
2019-05-21T06:55:45.287Z,99407.57
2019-05-21T07:01:38.640Z,99428.94
2019-05-21T07:04:25.293Z,99419.89
2019-05-21T07:07:26.641Z,99422.66
2019-05-21T07:10:13.524Z,99429.36
2019-05-21T07:13:00.697Z,99420.71
2019-05-21T07:18:53.668Z,99429.82
2019-05-21T07:21:41.231Z,99432.25
2019-05-21T07:24:28.785Z,99429.70
2019-05-21T07:27:17.138Z,99432.97
2019-05-21T07:30:04.219Z,99429.84
2019-05-21T07:32:52.148Z,99427.77
2019-05-21T07:35:38.638Z,99432.20
2019-05-21T07:41:31.856Z,99444.97
2019-05-21T07:44:18.721Z,99440.67
2019-05-21T07:47:05.474Z,99432.81
2019-05-21T07:49:52.217Z,99440.71
2019-05-21T07:52:39.763Z,99450.15
2019-05-21T07:55:26.927Z,99445.08
2019-05-21T07:58:13.831Z,99450.02
2019-05-21T08:01:01.853Z,99457.09
2019-05-21T08:03:55.633Z,99453.48
2019-05-21T08:06:43.132Z,99453.63
2019-05-21T08:09:30.274Z,99444.16
2019-05-21T08:12:37.267Z,99447.13
2019-05-21T08:15:07.795Z,99446.76
2019-05-21T08:17:56.204Z,99455.62
2019-05-21T08:23:49.421Z,99454.65
2019-05-21T08:26:37.432Z,99458.18
2019-05-21T08:29:24.238Z,99456.06
2019-05-21T08:32:11.131Z,99461.03
2019-05-21T08:34:58.429Z,99457.11
2019-05-21T08:37:45.297Z,99459.89
2019-05-21T08:40:32.458Z,99458.22
2019-05-21T08:43:22.073Z,99457.36
2019-05-21T08:46:09.285Z,99458.50
2019-05-21T08:48:56.113Z,99464.83
2019-05-21T08:51:43.632Z,99455.86
2019-05-21T08:54:50.398Z,99460.63
2019-05-21T08:57:38.313Z,99463.96
2019-05-21T09:00:25.148Z,99460.81
2019-05-21T09:03:12.668Z,99462.37
2019-05-21T09:05:59.763Z,99461.03
2019-05-21T09:08:47.705Z,99466.19
2019-05-21T09:11:34.945Z,99464.06
2019-05-21T09:14:21.907Z,99464.47
2019-05-21T09:17:08.989Z,99466.36
2019-05-21T09:20:10.239Z,99464.17
2019-05-21T09:26:03.883Z,99469.45
2019-05-21T09:28:50.923Z,99478.98
2019-05-21T09:31:38.153Z,99475.70
2019-05-21T09:34:25.269Z,99480.06
2019-05-21T09:37:19.612Z,99487.02
2019-05-21T09:39:59.529Z,99490.16
2019-05-21T09:42:46.602Z,99488.57
2019-05-21T09:45:33.938Z,99491.52
2019-05-21T09:48:24.015Z,99494.91
2019-05-21T09:51:19.483Z,99493.98
2019-05-21T09:53:59.345Z,99505.80
2019-05-21T09:56:47.394Z,99504.12
2019-05-21T09:59:43.329Z,99503.10
2019-05-21T10:02:30.328Z,99503.35
2019-05-21T10:05:18.360Z,99508.30
2019-05-21T10:08:05.685Z,99503.80
2019-05-21T10:10:53.230Z,99506.86
2019-05-21T10:13:40.360Z,99506.68
2019-05-21T10:19:33.428Z,99506.27
2019-05-21T10:22:20.768Z,99510.55
2019-05-21T10:25:08.563Z,99512.04
2019-05-21T10:27:57.316Z,99512.38
2019-05-21T10:30:44.456Z,99523.70
2019-05-21T10:33:31.399Z,99520.87
2019-05-21T10:36:20.916Z,99516.17
2019-05-21T10:39:08.995Z,99521.55
2019-05-21T10:41:55.885Z,99532.22
2019-05-21T10:44:43.312Z,99530.98
2019-05-21T10:47:30.862Z,99535.78
2019-05-21T10:50:18.320Z,99537.00
2019-05-21T10:53:05.481Z,99533.63
2019-05-21T10:55:52.370Z,99533.61
2019-05-21T10:58:39.260Z,99544.02
2019-05-21T11:01:32.554Z,99544.89
2019-05-21T11:04:31.854Z,99540.62
2019-05-21T11:07:18.906Z,99549.48
2019-05-21T11:10:07.294Z,99549.77
2019-05-21T11:12:53.344Z,99554.20
2019-05-21T11:15:40.558Z,99560.91
2019-05-21T11:18:28.032Z,99557.21
2019-05-21T11:21:15.021Z,99552.20
2019-05-21T11:24:02.398Z,99558.42
2019-05-21T11:26:49.320Z,99547.45
2019-05-21T11:29:36.340Z,99545.95
2019-05-21T11:32:37.994Z,99549.70
2019-05-21T11:35:25.286Z,99549.55
2019-05-21T11:41:26.050Z,99549.28
2019-05-21T11:47:20.196Z,99556.77
2019-05-21T11:50:08.133Z,99552.04
2019-05-21T11:52:55.232Z,99561.19
2019-05-21T11:55:42.473Z,99564.31
2019-05-21T11:58:29.849Z,99569.44
2019-05-21T12:01:17.138Z,99571.95
2019-05-21T12:04:03.872Z,99574.67
2019-05-21T12:06:51.660Z,99576.73
2019-05-21T12:09:38.438Z,99572.95
2019-05-21T12:12:28.049Z,99571.39
2019-05-21T12:15:15.482Z,99574.84
2019-05-21T12:18:09.286Z,99574.17
2019-05-21T12:20:56.378Z,99566.85
2019-05-21T12:23:43.034Z,99572.27
2019-05-21T12:26:30.217Z,99576.02
2019-05-21T12:29:17.682Z,99581.78
2019-05-21T12:32:04.940Z,99583.91
2019-05-21T12:34:52.865Z,99582.13
2019-05-21T12:37:39.905Z,99588.10
2019-05-21T12:40:26.935Z,99592.58
2019-05-21T12:43:14.411Z,99591.50
2019-05-21T12:49:07.784Z,99591.84
2019-05-21T12:51:55.130Z,99588.61
2019-05-21T12:57:49.194Z,99582.03
2019-05-21T13:00:36.845Z,99591.08
2019-05-21T13:03:23.756Z,99588.58
2019-05-21T13:06:11.000Z,99588.23
2019-05-21T13:08:58.419Z,99590.58
2019-05-21T13:11:45.101Z,99586.52
2019-05-21T13:17:38.372Z,99589.37
2019-05-21T13:20:25.691Z,99585.84
2019-05-21T13:23:14.329Z,99591.45
2019-05-21T13:26:01.574Z,99595.49
2019-05-21T13:29:03.274Z,99587.95
2019-05-21T13:31:50.212Z,99589.86
2019-05-21T13:34:37.329Z,99595.98
2019-05-21T13:37:24.785Z,99599.23
2019-05-21T13:40:12.101Z,99599.02
2019-05-21T13:42:59.536Z,99596.02
2019-05-21T13:45:46.361Z,99603.68
2019-05-21T13:48:48.372Z,99598.34
2019-05-21T13:51:30.994Z,99600.37
2019-05-21T13:54:18.129Z,99604.13
2019-05-21T13:57:05.649Z,99608.77
2019-05-21T13:59:52.407Z,99595.23
2019-05-21T14:02:39.622Z,99604.80
2019-05-21T14:05:26.456Z,99606.44
2019-05-21T14:08:13.498Z,99608.81
2019-05-21T14:11:00.895Z,99613.98
2019-05-21T14:13:47.877Z,99611.33
2019-05-21T14:16:35.119Z,99618.06
2019-05-21T14:19:22.124Z,99610.64
2019-05-21T14:22:08.900Z,99617.45
2019-05-21T14:24:56.224Z,99620.52
2019-05-21T14:27:45.012Z,99619.02
2019-05-21T14:30:30.570Z,99610.70
2019-05-21T14:33:17.496Z,99613.31
2019-05-21T14:36:04.437Z,99618.77
2019-05-21T14:38:52.422Z,99620.28
2019-05-21T14:41:39.165Z,99621.63
2019-05-21T14:44:26.384Z,99613.62
2019-05-21T14:47:13.374Z,99618.52
2019-05-21T14:50:00.012Z,99622.25
2019-05-21T14:52:46.814Z,99619.75
2019-05-21T14:55:33.519Z,99623.92
2019-05-21T14:58:20.315Z,99620.08
2019-05-21T15:01:07.866Z,99618.02
2019-05-21T15:03:55.038Z,99620.53
2019-05-21T15:06:42.924Z,99618.02
2019-05-21T15:09:30.308Z,99623.56
2019-05-21T15:12:17.507Z,99615.31
2019-05-21T15:15:07.464Z,99614.97
2019-05-21T15:17:54.105Z,99623.74
2019-05-21T15:20:51.183Z,99620.20
2019-05-21T15:23:39.018Z,99624.42
2019-05-21T15:26:26.530Z,99629.88
2019-05-21T15:29:15.481Z,99635.74
2019-05-21T15:32:02.349Z,99642.64
2019-05-21T15:34:49.018Z,99641.05
2019-05-21T15:37:36.209Z,99646.88
2019-05-21T15:40:23.179Z,99647.48
2019-05-21T15:43:12.899Z,99654.30
2019-05-21T15:46:00.004Z,99653.58
2019-05-21T15:48:47.128Z,99669.25
2019-05-21T15:51:35.150Z,99657.47
2019-05-21T15:54:22.383Z,99668.27
2019-05-21T15:57:10.575Z,99671.43
2019-05-21T15:59:56.233Z,99677.14
2019-05-21T16:02:43.018Z,99681.58
2019-05-21T16:05:29.835Z,99680.91
2019-05-21T16:08:16.542Z,99684.47
2019-05-21T16:11:04.453Z,99686.92
2019-05-21T16:13:52.075Z,99694.80
2019-05-21T16:16:39.957Z,99690.52
2019-05-21T16:19:27.842Z,99706.67
2019-05-21T16:22:14.905Z,99706.66
2019-05-21T16:25:02.382Z,99703.47
2019-05-21T16:27:49.415Z,99691.47
2019-05-21T16:30:36.705Z,99712.59
2019-05-21T16:33:23.884Z,99711.10
2019-05-21T16:36:11.664Z,99710.31
2019-05-21T16:38:58.514Z,99718.91
2019-05-21T16:41:45.661Z,99715.66
2019-05-21T16:44:32.733Z,99716.41
2019-05-21T16:47:19.858Z,99722.33
2019-05-21T16:50:14.144Z,99721.00
2019-05-21T16:53:01.579Z,99719.94
2019-05-21T16:55:48.942Z,99726.39
2019-05-21T16:58:36.008Z,99728.75
2019-05-21T17:01:22.983Z,99734.95
2019-05-21T17:04:11.207Z,99737.91
2019-05-21T17:07:05.127Z,99736.22
2019-05-21T17:09:54.488Z,99730.92
2019-05-21T17:12:41.688Z,99735.25
2019-05-21T17:15:28.907Z,99735.00
2019-05-21T17:18:16.421Z,99741.67
2019-05-21T17:21:03.826Z,99743.88
2019-05-21T17:23:50.431Z,99749.47
2019-05-21T17:26:37.464Z,99749.57
2019-05-21T17:29:24.649Z,99750.66
2019-05-21T17:32:11.504Z,99756.03
2019-05-21T17:34:58.385Z,99762.14
2019-05-21T17:37:46.537Z,99761.62
2019-05-21T17:40:34.145Z,99771.69
2019-05-21T17:43:21.009Z,99766.91
2019-05-21T17:46:08.313Z,99767.54
2019-05-21T17:48:55.531Z,99777.69
2019-05-21T17:51:42.690Z,99782.17
2019-05-21T17:54:29.438Z,99780.00
2019-05-21T17:57:17.458Z,99789.34
2019-05-21T18:00:15.174Z,99802.03
2019-05-21T18:03:02.158Z,99808.46
2019-05-21T18:05:49.481Z,99812.87
2019-05-21T18:08:36.586Z,99814.67
2019-05-21T18:11:23.757Z,99821.16
2019-05-21T18:14:13.770Z,99829.12
2019-05-21T18:17:04.590Z,99828.71
2019-05-21T18:19:51.632Z,99832.42
2019-05-21T18:22:43.628Z,99833.70
2019-05-21T18:25:30.288Z,99825.13
2019-05-21T18:28:17.123Z,99836.24
2019-05-21T18:31:05.361Z,99836.44
2019-05-21T18:33:52.420Z,99834.48
2019-05-21T18:36:39.413Z,99847.38
2019-05-21T18:39:26.961Z,99857.18
2019-05-21T18:42:22.330Z,99854.04
2019-05-21T18:45:02.378Z,99863.66
2019-05-21T18:47:49.221Z,99862.77
2019-05-21T18:50:37.192Z,99865.36
2019-05-21T18:53:23.312Z,99868.83
2019-05-21T18:56:21.541Z,99883.66
2019-05-21T18:59:08.522Z,99875.38
2019-05-21T19:01:55.359Z,99902.27
2019-05-21T19:04:42.729Z,99889.06
2019-05-21T19:07:29.780Z,99897.62
2019-05-21T19:10:27.062Z,99909.44
2019-05-21T19:13:13.981Z,99922.61
2019-05-21T19:16:01.067Z,99926.86
2019-05-21T19:18:48.007Z,99928.74
2019-05-21T19:21:34.766Z,99944.73
2019-05-21T19:24:22.184Z,99936.90
2019-05-21T19:27:09.645Z,99939.44
2019-05-21T19:29:58.940Z,99954.75
2019-05-21T19:32:45.976Z,99947.72
2019-05-21T19:35:39.123Z,99964.09
2019-05-21T19:38:26.856Z,99970.21
2019-05-21T19:41:14.327Z,99972.08
2019-05-21T19:44:02.390Z,99964.95
2019-05-21T19:46:49.552Z,99977.06
2019-05-21T19:49:37.079Z,99985.61
2019-05-21T19:52:23.885Z,99990.93
2019-05-21T19:55:11.121Z,100000.84
2019-05-21T19:57:58.327Z,100000.03
2019-05-21T20:00:45.444Z,99997.57
2019-05-21T20:03:32.540Z,99994.69
2019-05-21T20:06:19.686Z,99995.42
2019-05-21T20:09:07.076Z,100004.00
2019-05-21T20:11:54.342Z,100007.27
2019-05-21T20:14:41.001Z,100006.64
2019-05-21T20:17:29.703Z,100005.80
2019-05-21T20:20:14.728Z,100003.16
2019-05-21T20:23:02.020Z,100007.86
2019-05-21T20:25:56.503Z,100007.66
2019-05-21T20:28:36.190Z,100005.05
2019-05-21T20:31:24.102Z,100013.07
2019-05-21T20:34:11.730Z,100021.92
2019-05-21T20:40:04.106Z,100021.08
2019-05-21T20:42:51.240Z,100034.30
2019-05-21T20:45:37.913Z,100019.73
2019-05-21T20:48:24.955Z,100022.12
2019-05-21T20:51:12.536Z,100030.24
2019-05-21T20:53:59.991Z,100023.84
2019-05-21T20:56:46.638Z,100013.11
2019-05-21T20:59:33.724Z,100012.38
2019-05-21T21:02:20.425Z,100015.23
2019-05-21T21:05:07.399Z,100014.27
2019-05-21T21:07:54.999Z,100011.94
2019-05-21T21:10:42.755Z,100014.17
2019-05-21T21:13:30.700Z,100015.48
2019-05-21T21:16:17.456Z,100025.22
2019-05-21T21:19:04.546Z,100026.47
2019-05-21T21:21:51.406Z,100033.67
2019-05-21T21:24:39.466Z,100039.49
2019-05-21T21:27:26.602Z,100049.02
2019-05-21T21:30:13.830Z,100053.23
2019-05-21T21:33:00.513Z,100059.91
2019-05-21T21:35:47.440Z,100058.50
2019-05-21T21:38:34.361Z,100059.33
2019-05-21T21:41:21.135Z,100056.80
2019-05-21T21:44:07.921Z,100062.14
2019-05-21T21:46:55.895Z,100065.23
2019-05-21T21:49:42.617Z,100063.83
2019-05-21T21:52:29.472Z,100064.70
2019-05-21T21:55:16.220Z,100058.38
2019-05-21T21:58:03.876Z,100057.73
2019-05-21T22:01:03.054Z,100056.33
2019-05-21T22:06:55.999Z,100056.92
2019-05-21T22:09:43.341Z,100052.78
2019-05-21T22:12:31.177Z,100058.57
2019-05-21T22:15:17.923Z,100061.67
2019-05-21T22:18:04.578Z,100070.24
2019-05-21T22:20:51.705Z,100063.90
2019-05-21T22:23:38.607Z,100068.08
2019-05-21T22:26:25.798Z,100068.91
2019-05-21T22:29:13.234Z,100069.96
2019-05-21T22:32:00.770Z,100068.97
2019-05-21T22:34:48.287Z,100077.83
2019-05-21T22:37:35.320Z,100078.54
2019-05-21T22:40:22.346Z,100075.98
2019-05-21T22:43:09.151Z,100080.41
2019-05-21T22:45:56.350Z,100085.50
2019-05-21T22:48:43.454Z,100090.41
2019-05-21T22:51:30.882Z,100083.09
2019-05-21T22:54:18.204Z,100086.59
2019-05-21T22:57:05.476Z,100083.80
2019-05-21T22:59:52.256Z,100085.27
2019-05-21T23:02:39.257Z,100089.27
2019-05-21T23:05:28.922Z,100089.47
2019-05-21T23:08:16.094Z,100095.00
2019-05-21T23:11:02.962Z,100084.14
2019-05-21T23:13:50.269Z,100083.92
2019-05-21T23:16:37.560Z,100085.67
2019-05-21T23:19:24.656Z,100088.43
2019-05-21T23:22:11.731Z,100084.23
2019-05-21T23:24:58.738Z,100092.84
2019-05-21T23:27:45.862Z,100096.83
2019-05-21T23:30:33.348Z,100088.89
2019-05-21T23:33:20.271Z,100085.94
2019-05-21T23:36:06.905Z,100087.56
2019-05-21T23:38:54.091Z,100087.17
2019-05-21T23:41:41.087Z,100076.55
2019-05-21T23:44:28.100Z,100077.30
2019-05-21T23:50:22.767Z,100075.95
2019-05-21T23:53:10.134Z,100074.91
2019-05-21T23:55:57.144Z,100083.87
2019-05-21T23:58:44.162Z,100083.58
